createdAt,value
2022-11-24T00:00:12.404Z,58.65
2022-11-24T00:01:12.571Z,59.30
2022-11-24T00:02:12.794Z,80.89
2022-11-24T00:03:12.966Z,73.64
2022-11-24T00:04:13.073Z,53.82
2022-11-24T00:05:13.224Z,71.38
2022-11-24T00:06:13.410Z,75.89
2022-11-24T00:07:13.617Z,56.72
2022-11-24T00:08:13.693Z,57.20
2022-11-24T00:09:14.343Z,53.17
2022-11-24T00:10:13.998Z,63.97
2022-11-24T00:11:14.828Z,75.09
2022-11-24T00:12:14.335Z,59.62
2022-11-24T00:13:14.508Z,82.98
2022-11-24T00:14:14.692Z,59.46
2022-11-24T00:15:14.843Z,62.52
2022-11-24T00:16:15.067Z,75.09
2022-11-24T00:17:15.187Z,57.52
2022-11-24T00:18:15.335Z,58.97
2022-11-24T00:19:19.575Z,75.89
2022-11-24T00:20:16.684Z,65.90
2022-11-24T00:21:15.818Z,71.70
2022-11-24T00:22:15.944Z,80.24
2022-11-24T00:23:16.112Z,54.79
2022-11-24T00:24:16.290Z,78.79
2022-11-24T00:25:16.471Z,66.39
2022-11-24T00:26:16.673Z,56.72
2022-11-24T00:27:16.849Z,55.91
2022-11-24T00:28:17.009Z,79.44
2022-11-24T00:29:17.835Z,65.10
2022-11-24T00:30:17.350Z,61.55
2022-11-24T00:31:17.910Z,57.20
2022-11-24T00:32:17.668Z,55.27
2022-11-24T00:33:18.330Z,54.46
2022-11-24T00:34:17.973Z,62.84
2022-11-24T00:35:18.832Z,56.56
2022-11-24T00:36:18.388Z,55.27
2022-11-24T00:37:18.573Z,73.32
2022-11-24T00:38:18.726Z,77.34
2022-11-24T00:39:18.909Z,64.13
2022-11-24T00:40:19.840Z,75.09
2022-11-24T00:41:19.275Z,82.02
2022-11-24T00:42:19.442Z,59.46
2022-11-24T00:43:19.621Z,58.65
2022-11-24T00:44:19.822Z,57.52
2022-11-24T00:45:19.991Z,75.41
2022-11-24T00:46:21.013Z,52.37
2022-11-24T00:47:20.336Z,55.43
2022-11-24T00:48:20.421Z,57.85
2022-11-24T00:49:20.626Z,54.46
2022-11-24T00:50:20.819Z,58.01
2022-11-24T00:51:21.834Z,56.56
2022-11-24T00:52:21.281Z,52.85
2022-11-24T00:53:21.464Z,76.54
2022-11-24T00:54:21.666Z,54.30
2022-11-24T00:55:21.846Z,59.14
2022-11-24T00:56:22.049Z,73.80
2022-11-24T00:57:22.234Z,80.73
2022-11-24T00:58:22.406Z,53.33
2022-11-24T00:59:22.595Z,54.79
2022-11-24T01:00:22.777Z,51.72
2022-11-24T01:01:23.016Z,54.79
2022-11-24T01:02:23.167Z,54.14
2022-11-24T01:03:23.376Z,52.85
2022-11-24T01:04:23.564Z,53.82
2022-11-24T01:05:23.726Z,53.50
2022-11-24T01:06:23.881Z,58.33
2022-11-24T01:07:24.155Z,59.14
2022-11-24T01:08:24.216Z,63.65
2022-11-24T01:09:24.417Z,75.89
2022-11-24T01:10:24.587Z,66.55
2022-11-24T01:11:24.773Z,62.68
2022-11-24T01:12:24.896Z,55.75
2022-11-24T01:13:25.071Z,81.86
2022-11-24T01:14:25.256Z,59.30
2022-11-24T01:15:25.414Z,56.72
2022-11-24T01:16:25.618Z,55.91
2022-11-24T01:17:25.804Z,60.10
2022-11-24T01:18:25.959Z,60.10
2022-11-24T01:19:26.129Z,53.66
2022-11-24T01:20:26.281Z,52.05
2022-11-24T01:21:26.449Z,56.72
2022-11-24T01:22:26.623Z,72.83
2022-11-24T01:23:26.786Z,79.28
2022-11-24T01:24:26.968Z,59.78
2022-11-24T01:25:27.154Z,59.94
2022-11-24T01:26:27.338Z,65.42
2022-11-24T01:27:27.507Z,56.88
2022-11-24T01:28:27.699Z,52.69
2022-11-24T01:29:28.353Z,58.81
2022-11-24T01:30:28.003Z,59.78
2022-11-24T01:31:28.310Z,59.94
2022-11-24T01:32:28.422Z,59.14
2022-11-24T01:33:28.595Z,59.30
2022-11-24T01:34:28.750Z,73.96
2022-11-24T01:35:28.939Z,56.72
2022-11-24T01:36:29.123Z,57.36
2022-11-24T01:37:29.313Z,56.40
2022-11-24T01:38:30.459Z,64.78
2022-11-24T01:39:29.689Z,63.65
2022-11-24T01:40:30.347Z,55.59
2022-11-24T01:41:30.848Z,58.97
2022-11-24T01:42:30.239Z,51.24
2022-11-24T01:43:30.371Z,51.88
2022-11-24T01:44:30.515Z,59.46
2022-11-24T01:45:30.651Z,69.93
2022-11-24T01:46:30.876Z,54.62
2022-11-24T01:47:30.951Z,54.95
2022-11-24T01:48:31.849Z,75.09
2022-11-24T01:49:31.209Z,59.94
2022-11-24T01:50:31.342Z,57.69
2022-11-24T01:51:31.499Z,54.79
2022-11-24T01:52:31.629Z,85.40
2022-11-24T01:53:31.757Z,61.87
2022-11-24T01:54:32.377Z,53.82
2022-11-24T01:55:32.111Z,62.84
2022-11-24T01:56:32.240Z,61.07
2022-11-24T01:57:32.354Z,81.37
2022-11-24T01:58:32.497Z,50.92
2022-11-24T01:59:32.610Z,54.14
2022-11-24T02:00:32.835Z,56.88
2022-11-24T02:01:33.136Z,55.75
2022-11-24T02:02:33.251Z,52.69
2022-11-24T02:03:33.425Z,53.98
2022-11-24T02:04:33.980Z,62.04
2022-11-24T02:05:33.742Z,67.84
2022-11-24T02:06:33.865Z,61.23
2022-11-24T02:07:34.023Z,53.82
2022-11-24T02:08:34.213Z,54.30
2022-11-24T02:09:34.338Z,66.06
2022-11-24T02:10:34.500Z,53.01
2022-11-24T02:11:34.640Z,56.40
2022-11-24T02:12:34.786Z,74.44
2022-11-24T02:13:35.861Z,65.42
2022-11-24T02:14:35.367Z,56.56
2022-11-24T02:15:35.297Z,58.49
2022-11-24T02:16:36.507Z,60.26
2022-11-24T02:17:35.612Z,60.59
2022-11-24T02:18:35.736Z,65.10
2022-11-24T02:19:35.861Z,63.00
2022-11-24T02:20:36.090Z,63.00
2022-11-24T02:21:36.367Z,56.24
2022-11-24T02:22:36.462Z,78.31
2022-11-24T02:23:37.357Z,55.75
2022-11-24T02:24:36.836Z,77.99
2022-11-24T02:25:37.854Z,72.99
2022-11-24T02:26:37.223Z,59.14
2022-11-24T02:27:37.329Z,79.76
2022-11-24T02:28:37.468Z,62.36
2022-11-24T02:29:37.596Z,65.10
2022-11-24T02:30:37.723Z,72.03
2022-11-24T02:31:37.927Z,83.79
2022-11-24T02:32:38.065Z,79.76
2022-11-24T02:33:38.191Z,57.85
2022-11-24T02:34:38.329Z,60.10
2022-11-24T02:35:38.472Z,54.14
2022-11-24T02:36:38.877Z,77.18
2022-11-24T02:37:38.733Z,80.08
2022-11-24T02:38:38.892Z,54.14
2022-11-24T02:39:39.021Z,53.17
2022-11-24T02:40:39.257Z,82.18
2022-11-24T02:41:39.506Z,58.65
2022-11-24T02:42:40.359Z,69.77
2022-11-24T02:43:39.835Z,55.59
2022-11-24T02:44:39.956Z,55.43
2022-11-24T02:45:40.107Z,76.70
2022-11-24T02:46:40.914Z,55.27
2022-11-24T02:47:40.449Z,74.28
2022-11-24T02:48:40.580Z,79.76
2022-11-24T02:49:40.734Z,78.96
2022-11-24T02:50:40.880Z,53.82
2022-11-24T02:51:40.981Z,51.72
2022-11-24T02:52:41.131Z,59.94
2022-11-24T02:53:41.373Z,61.55
2022-11-24T02:54:41.398Z,55.75
2022-11-24T02:55:41.521Z,53.17
2022-11-24T02:56:41.642Z,59.46
2022-11-24T02:57:41.771Z,62.68
2022-11-24T02:58:41.917Z,63.00
2022-11-24T02:59:42.056Z,80.24
2022-11-24T03:00:42.230Z,61.55
2022-11-24T03:01:42.405Z,73.64
2022-11-24T03:02:42.637Z,55.27
2022-11-24T03:03:42.809Z,52.69
2022-11-24T03:04:42.983Z,53.98
2022-11-24T03:05:43.163Z,76.54
2022-11-24T03:06:43.338Z,77.83
2022-11-24T03:07:43.519Z,76.70
2022-11-24T03:08:43.696Z,77.50
2022-11-24T03:09:44.366Z,76.54
2022-11-24T03:10:44.380Z,71.38
2022-11-24T03:11:44.147Z,78.15
2022-11-24T03:12:44.292Z,56.40
2022-11-24T03:13:44.435Z,62.36
2022-11-24T03:14:44.592Z,81.53
2022-11-24T03:15:44.809Z,77.18
2022-11-24T03:16:44.982Z,77.34
2022-11-24T03:17:45.122Z,55.27
2022-11-24T03:18:45.277Z,54.46
2022-11-24T03:19:45.430Z,55.91
2022-11-24T03:20:45.881Z,74.28
2022-11-24T03:21:45.770Z,71.38
2022-11-24T03:22:45.923Z,55.43
2022-11-24T03:23:46.091Z,52.69
2022-11-24T03:24:46.878Z,58.49
2022-11-24T03:25:46.374Z,82.02
2022-11-24T03:26:46.520Z,70.74
2022-11-24T03:27:46.653Z,78.63
2022-11-24T03:28:46.828Z,78.63
2022-11-24T03:29:46.981Z,55.27
2022-11-24T03:30:47.158Z,57.36
2022-11-24T03:31:47.318Z,59.14
2022-11-24T03:32:47.437Z,71.38
2022-11-24T03:33:47.582Z,73.15
2022-11-24T03:34:47.747Z,82.18
2022-11-24T03:35:48.873Z,74.93
2022-11-24T03:36:48.873Z,76.54
2022-11-24T03:37:48.280Z,73.96
2022-11-24T03:38:48.429Z,73.32
2022-11-24T03:39:48.591Z,78.15
2022-11-24T03:40:48.749Z,77.34
2022-11-24T03:41:48.900Z,77.83
2022-11-24T03:42:49.876Z,77.99
2022-11-24T03:43:49.252Z,75.25
2022-11-24T03:44:49.400Z,73.80
2022-11-24T03:45:49.582Z,68.48
2022-11-24T03:46:50.448Z,77.34
2022-11-24T03:47:49.874Z,81.21
2022-11-24T03:48:50.050Z,80.41
2022-11-24T03:49:50.878Z,77.18
2022-11-24T03:50:50.887Z,77.50
2022-11-24T03:51:50.634Z,78.63
2022-11-24T03:52:50.780Z,77.18
2022-11-24T03:53:50.932Z,77.99
2022-11-24T03:54:51.081Z,76.05
2022-11-24T03:55:51.228Z,76.70
2022-11-24T03:56:51.364Z,80.89
2022-11-24T03:57:51.519Z,79.92
2022-11-24T03:58:51.683Z,79.44
2022-11-24T03:59:51.832Z,80.08
2022-11-24T04:00:52.990Z,75.89
2022-11-24T04:01:52.266Z,80.57
2022-11-24T04:02:52.450Z,72.67
2022-11-24T04:03:52.629Z,79.76
2022-11-24T04:04:52.889Z,79.12
2022-11-24T04:05:52.858Z,78.96
2022-11-24T04:06:54.098Z,78.63
2022-11-24T04:07:53.347Z,78.47
2022-11-24T04:08:53.503Z,81.21
2022-11-24T04:09:53.631Z,82.66
2022-11-24T04:10:53.851Z,82.50
2022-11-24T04:11:54.070Z,82.18
2022-11-24T04:12:54.305Z,79.44
2022-11-24T04:13:54.439Z,78.47
2022-11-24T04:14:54.553Z,81.53
2022-11-24T04:15:54.953Z,77.99
2022-11-24T04:16:54.839Z,79.28
2022-11-24T04:17:55.882Z,81.05
2022-11-24T04:18:55.195Z,82.82
2022-11-24T04:19:55.434Z,81.37
2022-11-24T04:20:55.571Z,79.12
2022-11-24T04:21:55.684Z,79.12
2022-11-24T04:22:55.917Z,80.24
2022-11-24T04:23:56.050Z,79.44
2022-11-24T04:24:56.285Z,83.79
2022-11-24T04:25:56.529Z,81.05
2022-11-24T04:26:57.383Z,79.60
2022-11-24T04:27:56.879Z,82.18
2022-11-24T04:28:57.882Z,78.47
2022-11-24T04:29:57.121Z,82.34
2022-11-24T04:30:57.347Z,82.82
2022-11-24T04:31:57.464Z,81.53
2022-11-24T04:32:57.708Z,80.89
2022-11-24T04:33:57.832Z,80.73
2022-11-24T04:34:58.075Z,81.05
2022-11-24T04:35:58.331Z,80.41
2022-11-24T04:36:58.461Z,77.18
2022-11-24T04:37:58.598Z,80.24
2022-11-24T04:39:22.784Z,77.99
2022-11-24T04:39:59.879Z,84.27
2022-11-24T04:40:59.121Z,81.53
2022-11-24T04:41:59.257Z,81.37
2022-11-24T04:42:59.491Z,88.14
2022-11-24T04:43:59.611Z,83.31
2022-11-24T04:44:59.761Z,81.37
2022-11-24T04:45:59.924Z,79.60
2022-11-24T04:47:00.100Z,80.41
2022-11-24T04:48:00.176Z,82.02
2022-11-24T04:49:00.308Z,82.02
2022-11-24T04:50:00.910Z,81.86
2022-11-24T04:51:00.773Z,82.82
2022-11-24T04:52:01.898Z,79.28
2022-11-24T04:53:01.238Z,81.05
2022-11-24T04:54:01.383Z,79.44
2022-11-24T04:55:02.392Z,83.63
2022-11-24T04:56:01.648Z,80.24
2022-11-24T04:57:01.758Z,83.63
2022-11-24T04:58:02.412Z,80.41
2022-11-24T04:59:07.866Z,78.63
2022-11-24T05:00:04.893Z,80.24
2022-11-24T05:01:02.469Z,81.53
2022-11-24T05:02:02.636Z,79.60
2022-11-24T05:03:02.818Z,78.47
2022-11-24T05:04:03.014Z,80.41
2022-11-24T05:05:03.136Z,78.15
2022-11-24T05:06:03.281Z,81.37
2022-11-24T05:07:03.436Z,80.41
2022-11-24T05:08:03.996Z,82.34
2022-11-24T05:09:03.774Z,83.14
2022-11-24T05:10:03.924Z,82.82
2022-11-24T05:11:04.894Z,81.21
2022-11-24T05:12:04.266Z,82.02
2022-11-24T05:13:04.429Z,81.53
2022-11-24T05:14:04.588Z,83.31
2022-11-24T05:15:05.408Z,88.95
2022-11-24T05:16:04.958Z,83.95
2022-11-24T05:17:05.018Z,82.34
2022-11-24T05:18:05.418Z,83.14
2022-11-24T05:19:05.933Z,86.37
2022-11-24T05:20:05.549Z,82.50
2022-11-24T05:21:05.705Z,82.50
2022-11-24T05:22:05.859Z,83.79
2022-11-24T05:23:06.023Z,84.27
2022-11-24T05:24:06.141Z,90.72
2022-11-24T05:25:06.308Z,81.53
2022-11-24T05:26:06.457Z,82.98
2022-11-24T05:27:06.588Z,88.30
2022-11-24T05:28:06.736Z,81.53
2022-11-24T05:29:06.887Z,80.41
2022-11-24T05:30:07.063Z,83.63
2022-11-24T05:31:07.273Z,80.89
2022-11-24T05:32:07.362Z,83.31
2022-11-24T05:33:07.534Z,80.41
2022-11-24T05:34:07.697Z,81.53
2022-11-24T05:35:07.885Z,81.37
2022-11-24T05:36:08.047Z,83.47
2022-11-24T05:37:08.195Z,82.66
2022-11-24T05:38:08.328Z,82.50
2022-11-24T05:39:08.471Z,82.66
2022-11-24T05:40:08.611Z,84.59
2022-11-24T05:41:08.748Z,80.24
2022-11-24T05:42:08.884Z,80.89
2022-11-24T05:43:09.046Z,83.95
2022-11-24T05:44:09.197Z,81.21
2022-11-24T05:45:09.912Z,82.98
2022-11-24T05:46:09.541Z,83.47
2022-11-24T05:47:09.757Z,80.89
2022-11-24T05:48:09.945Z,80.57
2022-11-24T05:49:10.095Z,81.37
2022-11-24T05:50:10.274Z,80.08
2022-11-24T05:51:10.477Z,82.50
2022-11-24T05:52:10.662Z,80.24
2022-11-24T05:53:10.851Z,82.02
2022-11-24T05:54:11.029Z,80.57
2022-11-24T05:55:11.176Z,81.37
2022-11-24T05:56:11.329Z,82.66
2022-11-24T05:57:11.490Z,81.37
2022-11-24T05:58:11.667Z,83.79
2022-11-24T05:59:11.835Z,82.50
2022-11-24T06:00:11.983Z,82.34
2022-11-24T06:01:12.148Z,81.21
2022-11-24T06:02:12.345Z,81.21
2022-11-24T06:03:12.593Z,82.02
2022-11-24T06:04:12.617Z,83.79
2022-11-24T06:05:12.796Z,79.76
2022-11-24T06:06:12.962Z,82.02
2022-11-24T06:07:13.175Z,81.37
2022-11-24T06:08:13.332Z,84.11
2022-11-24T06:09:13.489Z,81.21
2022-11-24T06:10:13.699Z,77.50
2022-11-24T06:11:13.862Z,85.40
2022-11-24T06:12:14.913Z,79.76
2022-11-24T06:13:14.253Z,78.31
2022-11-24T06:14:14.310Z,78.15
2022-11-24T06:15:14.481Z,82.50
2022-11-24T06:16:15.448Z,85.40
2022-11-24T06:17:14.873Z,80.57
2022-11-24T06:18:15.031Z,79.76
2022-11-24T06:19:15.192Z,81.53
2022-11-24T06:20:15.351Z,81.86
2022-11-24T06:21:15.543Z,82.34
2022-11-24T06:22:15.689Z,80.41
2022-11-24T06:23:16.418Z,86.04
2022-11-24T06:24:16.035Z,82.50
2022-11-24T06:25:16.216Z,81.86
2022-11-24T06:26:16.346Z,80.24
2022-11-24T06:27:16.453Z,83.95
2022-11-24T06:28:17.434Z,80.08
2022-11-24T06:29:17.419Z,79.60
2022-11-24T06:30:17.045Z,81.21
2022-11-24T06:31:17.255Z,82.50
2022-11-24T06:32:17.406Z,78.96
2022-11-24T06:33:17.585Z,80.57
2022-11-24T06:34:17.688Z,84.59
2022-11-24T06:35:17.841Z,82.34
2022-11-24T06:36:17.971Z,85.08
2022-11-24T06:37:18.431Z,81.05
2022-11-24T06:38:24.123Z,79.92
2022-11-24T06:39:20.930Z,81.53
2022-11-24T06:40:19.418Z,79.92
2022-11-24T06:41:18.801Z,80.24
2022-11-24T06:42:18.946Z,79.44
2022-11-24T06:43:19.093Z,81.37
2022-11-24T06:44:19.266Z,80.57
2022-11-24T06:45:19.406Z,77.83
2022-11-24T06:46:19.603Z,80.73
2022-11-24T06:47:20.420Z,80.89
2022-11-24T06:48:19.948Z,80.24
2022-11-24T06:49:53.516Z,77.02
2022-11-24T06:50:20.246Z,80.24
2022-11-24T06:51:20.962Z,80.41
2022-11-24T06:52:20.583Z,85.40
2022-11-24T06:53:20.752Z,78.79
2022-11-24T06:54:20.916Z,79.44
2022-11-24T06:55:21.077Z,86.04
2022-11-24T06:56:21.964Z,79.92
2022-11-24T06:57:21.461Z,78.79
2022-11-24T06:58:21.606Z,82.34
2022-11-24T06:59:21.779Z,80.89
2022-11-24T07:00:21.961Z,80.73
2022-11-24T07:01:22.195Z,78.63
2022-11-24T07:02:22.329Z,82.66
2022-11-24T07:03:22.543Z,78.96
2022-11-24T07:04:22.587Z,82.02
2022-11-24T07:05:22.739Z,83.79
2022-11-24T07:06:22.875Z,80.08
2022-11-24T07:07:23.093Z,81.37
2022-11-24T07:08:23.244Z,82.34
2022-11-24T07:09:23.961Z,78.79
2022-11-24T07:10:23.601Z,80.89
2022-11-24T07:11:23.766Z,77.50
2022-11-24T07:12:24.464Z,82.82
2022-11-24T07:13:24.475Z,84.11
2022-11-24T07:14:24.220Z,83.79
2022-11-24T07:15:24.368Z,84.27
2022-11-24T07:16:24.623Z,81.69
2022-11-24T07:17:24.712Z,83.79
2022-11-24T07:18:24.839Z,84.43
2022-11-24T07:19:25.434Z,82.98
2022-11-24T07:20:26.105Z,83.95
2022-11-24T07:21:25.302Z,81.21
2022-11-24T07:22:25.961Z,79.28
2022-11-24T07:23:26.465Z,82.34
2022-11-24T07:24:25.846Z,80.08
2022-11-24T07:25:25.994Z,83.79
2022-11-24T07:26:27.158Z,79.76
2022-11-24T07:27:26.305Z,81.21
2022-11-24T07:28:26.487Z,80.73
2022-11-24T07:29:26.654Z,81.69
2022-11-24T07:30:26.853Z,77.18
2022-11-24T07:31:27.184Z,80.08
2022-11-24T07:32:27.241Z,79.76
2022-11-24T07:33:27.392Z,77.83
2022-11-24T07:34:27.526Z,80.89
2022-11-24T07:35:27.680Z,83.14
2022-11-24T07:36:27.879Z,78.79
2022-11-24T07:37:31.285Z,78.96
2022-11-24T07:38:29.261Z,77.83
2022-11-24T07:39:28.424Z,81.37
2022-11-24T07:40:28.602Z,80.89
2022-11-24T07:41:28.979Z,81.05
2022-11-24T07:42:28.920Z,78.96
2022-11-24T07:43:29.090Z,80.41
2022-11-24T07:44:29.252Z,80.89
2022-11-24T07:45:30.014Z,84.27
2022-11-24T07:46:29.657Z,79.60
2022-11-24T07:47:29.833Z,78.15
2022-11-24T07:48:30.016Z,78.79
2022-11-24T07:49:30.206Z,80.08
2022-11-24T07:50:30.388Z,82.34
2022-11-24T07:51:31.473Z,80.24
2022-11-24T07:52:30.736Z,80.89
2022-11-24T07:53:30.880Z,85.40
2022-11-24T07:54:31.059Z,80.57
2022-11-24T07:55:31.488Z,78.15
2022-11-24T07:56:31.537Z,78.63
2022-11-24T07:57:32.482Z,80.89
2022-11-24T07:58:33.271Z,79.60
2022-11-24T07:59:33.055Z,81.05
2022-11-24T08:00:32.198Z,82.02
2022-11-24T08:01:32.422Z,82.82
2022-11-24T08:02:32.507Z,77.67
2022-11-24T08:03:33.501Z,79.60
2022-11-24T08:04:33.287Z,79.76
2022-11-24T08:05:33.136Z,79.44
2022-11-24T08:06:39.863Z,84.76
2022-11-24T08:07:35.527Z,81.86
2022-11-24T08:08:33.702Z,81.53
2022-11-24T08:09:34.475Z,79.76
2022-11-24T08:10:34.970Z,79.28
2022-11-24T08:11:34.230Z,84.59
2022-11-24T08:12:34.411Z,81.21
2022-11-24T08:13:34.583Z,81.37
2022-11-24T08:14:35.027Z,81.69
2022-11-24T08:15:34.969Z,79.44
2022-11-24T08:16:35.188Z,83.79
2022-11-24T08:17:35.307Z,80.57
2022-11-24T08:18:35.483Z,81.53
2022-11-24T08:19:35.997Z,78.47
2022-11-24T08:20:35.857Z,81.37
2022-11-24T08:21:36.023Z,80.57
2022-11-24T08:22:36.223Z,79.28
2022-11-24T08:23:36.352Z,80.73
2022-11-24T08:24:37.104Z,78.47
2022-11-24T08:25:36.713Z,79.60
2022-11-24T08:26:36.866Z,84.27
2022-11-24T08:27:37.013Z,78.79
2022-11-24T08:28:37.173Z,82.82
2022-11-24T08:29:37.352Z,80.57
2022-11-24T08:30:37.524Z,78.96
2022-11-24T08:31:38.071Z,81.05
2022-11-24T08:32:37.866Z,85.24
2022-11-24T08:33:38.016Z,81.69
2022-11-24T08:34:38.159Z,77.34
2022-11-24T08:35:38.316Z,80.57
2022-11-24T08:36:38.494Z,80.24
2022-11-24T08:37:38.989Z,79.28
2022-11-24T08:38:38.916Z,83.14
2022-11-24T08:39:39.049Z,79.28
2022-11-24T08:40:39.195Z,79.44
2022-11-24T08:41:39.381Z,80.08
2022-11-24T08:42:39.544Z,80.41
2022-11-24T08:43:39.996Z,81.53
2022-11-24T08:44:40.479Z,79.44
2022-11-24T08:45:41.830Z,80.57
2022-11-24T08:46:41.285Z,78.31
2022-11-24T08:47:40.433Z,81.21
2022-11-24T08:48:40.994Z,82.98
2022-11-24T08:49:40.991Z,81.86
2022-11-24T08:50:40.879Z,82.98
2022-11-24T08:51:41.053Z,80.24
2022-11-24T08:52:41.230Z,82.66
2022-11-24T08:53:41.986Z,81.53
2022-11-24T08:54:41.465Z,81.53
2022-11-24T08:55:41.608Z,83.14
2022-11-24T08:56:42.494Z,82.18
2022-11-24T08:57:41.916Z,80.41
2022-11-24T08:58:43.120Z,82.18
2022-11-24T08:59:42.210Z,78.15
2022-11-24T09:00:42.371Z,80.24
2022-11-24T09:01:42.563Z,81.53
2022-11-24T09:02:43.488Z,81.53
2022-11-24T09:03:49.720Z,80.73
2022-11-24T09:04:45.144Z,79.60
2022-11-24T09:05:51.733Z,81.05
2022-11-24T09:06:45.501Z,81.86
2022-11-24T09:07:43.653Z,90.40
2022-11-24T09:08:43.827Z,78.47
2022-11-24T09:09:43.996Z,80.41
2022-11-24T09:10:44.152Z,80.24
2022-11-24T09:11:44.328Z,81.86
2022-11-24T09:12:44.465Z,80.73
2022-11-24T09:13:45.506Z,80.73
2022-11-24T09:14:44.757Z,78.96
2022-11-24T09:15:45.475Z,83.14
2022-11-24T09:16:46.535Z,78.96
2022-11-24T09:17:45.304Z,79.76
2022-11-24T09:18:45.464Z,78.79
2022-11-24T09:19:45.648Z,79.44
2022-11-24T09:20:45.797Z,78.31
2022-11-24T09:21:45.946Z,82.82
2022-11-24T09:22:46.979Z,81.69
2022-11-24T09:23:47.232Z,79.76
2022-11-24T09:24:46.357Z,81.21
2022-11-24T09:25:46.531Z,81.05
2022-11-24T09:26:47.976Z,79.44
2022-11-24T09:27:48.004Z,77.02
2022-11-24T09:28:47.163Z,78.47
2022-11-24T09:29:47.324Z,83.31
2022-11-24T09:30:47.515Z,80.73
2022-11-24T09:31:47.686Z,81.37
2022-11-24T09:32:48.496Z,79.28
2022-11-24T09:33:48.039Z,80.08
2022-11-24T09:34:48.192Z,78.63
2022-11-24T09:35:48.505Z,79.76
2022-11-24T09:36:48.522Z,79.76
2022-11-24T09:37:48.663Z,80.57
2022-11-24T09:38:48.883Z,80.24
2022-11-24T09:39:49.060Z,77.83
2022-11-24T09:40:49.237Z,81.69
2022-11-24T09:41:49.390Z,81.37
2022-11-24T09:42:53.600Z,80.24
2022-11-24T09:43:50.655Z,79.12
2022-11-24T09:44:49.779Z,80.41
2022-11-24T09:46:05.133Z,79.76
2022-11-24T09:46:53.134Z,85.88
2022-11-24T09:47:50.269Z,83.79
2022-11-24T09:48:51.000Z,82.50
2022-11-24T09:49:51.876Z,82.66
2022-11-24T09:50:51.888Z,79.12
2022-11-24T09:51:50.995Z,81.37
2022-11-24T09:52:51.994Z,82.18
2022-11-24T09:53:51.356Z,77.50
2022-11-24T09:54:51.490Z,78.63
2022-11-24T09:55:51.643Z,81.05
2022-11-24T09:56:51.771Z,79.92
2022-11-24T09:57:51.894Z,81.69
2022-11-24T09:58:52.047Z,80.08
2022-11-24T09:59:53.002Z,80.57
2022-11-24T10:00:53.021Z,84.92
2022-11-24T10:01:52.621Z,78.96
2022-11-24T10:02:52.740Z,82.82
2022-11-24T10:03:53.504Z,77.18
2022-11-24T10:04:53.100Z,80.89
2022-11-24T10:05:53.137Z,79.92
2022-11-24T10:06:53.323Z,79.12
2022-11-24T10:07:54.030Z,86.04
2022-11-24T10:08:53.610Z,79.60
2022-11-24T10:09:53.768Z,82.82
2022-11-24T10:10:54.499Z,79.28
2022-11-24T10:11:54.150Z,84.11
2022-11-24T10:12:54.317Z,85.88
2022-11-24T10:13:54.453Z,81.37
2022-11-24T10:14:54.615Z,82.50
2022-11-24T10:15:54.842Z,80.24
2022-11-24T10:16:55.500Z,81.53
2022-11-24T10:17:55.156Z,80.08
2022-11-24T10:18:56.014Z,79.76
2022-11-24T10:19:56.508Z,80.73
2022-11-24T10:20:56.510Z,87.66
2022-11-24T10:21:55.889Z,80.24
2022-11-24T10:22:56.068Z,82.82
2022-11-24T10:23:56.231Z,79.28
2022-11-24T10:24:57.004Z,82.50
2022-11-24T10:25:56.512Z,80.41
2022-11-24T10:26:56.644Z,82.66
2022-11-24T10:27:56.799Z,83.31
2022-11-24T10:28:57.003Z,79.76
2022-11-24T10:29:58.006Z,79.44
2022-11-24T10:30:57.304Z,82.02
2022-11-24T10:31:57.489Z,81.53
2022-11-24T10:32:57.664Z,80.41
2022-11-24T10:33:57.854Z,83.31
2022-11-24T10:34:58.007Z,78.15
2022-11-24T10:35:58.179Z,81.69
2022-11-24T10:36:58.323Z,82.34
2022-11-24T10:37:58.459Z,81.37
2022-11-24T10:38:59.023Z,81.37
2022-11-24T10:40:00.418Z,80.41
2022-11-24T10:40:59.965Z,79.28
2022-11-24T10:42:00.041Z,83.14
2022-11-24T10:42:59.321Z,81.21
2022-11-24T10:43:59.503Z,79.76
2022-11-24T10:44:59.650Z,79.28
2022-11-24T10:45:59.930Z,82.50
2022-11-24T10:47:00.054Z,79.60
2022-11-24T10:48:00.207Z,84.43
2022-11-24T10:49:00.372Z,78.79
2022-11-24T10:50:00.526Z,81.53
2022-11-24T10:51:00.709Z,83.95
2022-11-24T10:52:01.579Z,80.89
2022-11-24T10:53:01.006Z,81.69
2022-11-24T10:54:01.245Z,79.44
2022-11-24T10:55:01.384Z,80.73
2022-11-24T10:56:02.035Z,82.66
2022-11-24T10:57:01.674Z,82.34
2022-11-24T10:58:01.852Z,85.56
2022-11-24T10:59:02.033Z,81.05
2022-11-24T11:00:02.265Z,79.76
2022-11-24T11:01:02.501Z,78.15
2022-11-24T11:02:02.820Z,80.24
2022-11-24T11:03:03.618Z,79.28
2022-11-24T11:04:02.894Z,81.21
2022-11-24T11:05:03.087Z,81.69
2022-11-24T11:06:03.244Z,82.02
2022-11-24T11:07:04.018Z,80.24
2022-11-24T11:08:05.659Z,80.24
2022-11-24T11:09:04.730Z,78.79
2022-11-24T11:10:04.512Z,81.05
2022-11-24T11:11:04.024Z,81.53
2022-11-24T11:12:27.748Z,83.31
2022-11-24T11:13:06.549Z,82.82
2022-11-24T11:14:04.948Z,82.18
2022-11-24T11:15:05.697Z,81.86
2022-11-24T11:16:05.871Z,80.08
2022-11-24T11:17:05.020Z,80.24
2022-11-24T11:18:05.214Z,81.05
2022-11-24T11:19:20.181Z,82.02
2022-11-24T11:20:07.990Z,80.73
2022-11-24T11:21:05.776Z,81.69
2022-11-24T11:22:05.989Z,79.12
2022-11-24T11:23:06.166Z,82.50
2022-11-24T11:24:07.019Z,82.18
2022-11-24T11:25:07.518Z,79.76
2022-11-24T11:26:06.778Z,82.34
2022-11-24T11:27:06.941Z,81.69
2022-11-24T11:28:10.606Z,80.24
2022-11-24T11:31:19.168Z,80.24
2022-11-24T11:34:16.656Z,82.50
2022-11-24T11:35:11.053Z,80.41
2022-11-24T11:36:08.823Z,78.79
2022-11-24T11:37:08.882Z,79.76
2022-11-24T11:38:10.025Z,79.44
2022-11-24T11:39:10.034Z,83.31
2022-11-24T11:40:09.431Z,80.24
2022-11-24T11:41:09.583Z,80.41
2022-11-24T11:42:09.714Z,79.76
2022-11-24T11:43:09.861Z,79.44
2022-11-24T11:44:10.025Z,80.73
2022-11-24T11:45:10.229Z,79.12
2022-11-24T11:46:10.731Z,80.73
2022-11-24T11:47:10.606Z,81.21
2022-11-24T11:48:10.737Z,80.73
2022-11-24T11:49:10.871Z,79.44
2022-11-24T11:50:11.023Z,80.24
2022-11-24T11:51:26.673Z,83.31
2022-11-24T11:52:13.417Z,79.28
2022-11-24T11:53:11.615Z,81.86
2022-11-24T11:54:11.745Z,82.18
2022-11-24T11:55:11.880Z,81.37
2022-11-24T11:56:12.031Z,81.21
2022-11-24T11:57:12.191Z,80.24
2022-11-24T11:58:12.339Z,83.95
2022-11-24T11:59:12.472Z,81.05
2022-11-24T12:00:13.547Z,79.44
2022-11-24T12:01:12.796Z,77.83
2022-11-24T12:02:12.988Z,81.53
2022-11-24T12:03:13.286Z,84.92
2022-11-24T12:04:13.402Z,78.79
2022-11-24T12:05:14.531Z,78.96
2022-11-24T12:06:13.751Z,78.79
2022-11-24T12:07:13.923Z,83.31
2022-11-24T12:08:20.448Z,80.57
2022-11-24T12:09:33.152Z,78.79
2022-11-24T12:10:16.415Z,77.99
2022-11-24T12:11:14.643Z,79.44
2022-11-24T12:12:14.815Z,81.37
2022-11-24T12:13:14.955Z,80.24
2022-11-24T12:14:15.546Z,75.89
2022-11-24T12:15:15.298Z,78.31
2022-11-24T12:16:15.480Z,81.05
2022-11-24T12:17:15.668Z,78.31
2022-11-24T12:18:40.350Z,78.63
2022-11-24T12:19:17.928Z,81.69
2022-11-24T12:20:17.036Z,81.53
2022-11-24T12:21:18.923Z,83.31
2022-11-24T12:22:17.504Z,79.44
2022-11-24T12:23:16.765Z,81.53
2022-11-24T12:24:17.583Z,75.89
2022-11-24T12:25:18.033Z,78.79
2022-11-24T12:26:17.551Z,79.76
2022-11-24T12:27:22.519Z,79.76
2022-11-24T12:28:19.631Z,79.28
2022-11-24T12:29:17.888Z,77.99
2022-11-24T12:30:18.036Z,80.24
2022-11-24T12:31:18.238Z,85.24
2022-11-24T12:32:19.769Z,79.12
2022-11-24T12:33:18.630Z,81.37
2022-11-24T12:34:18.772Z,77.34
2022-11-24T12:35:18.899Z,80.57
2022-11-24T12:36:19.049Z,78.79
2022-11-24T12:37:20.048Z,81.37
2022-11-24T12:38:19.419Z,78.96
2022-11-24T12:39:19.587Z,80.41
2022-11-24T12:40:19.729Z,76.70
2022-11-24T12:41:45.834Z,82.02
2022-11-24T12:42:22.084Z,79.92
2022-11-24T12:43:20.276Z,79.76
2022-11-24T12:44:20.539Z,78.15
2022-11-24T12:45:20.684Z,80.73
2022-11-24T12:46:20.999Z,79.28
2022-11-24T12:47:22.050Z,80.24
2022-11-24T12:48:21.559Z,82.18
2022-11-24T12:49:21.457Z,77.99
2022-11-24T12:50:21.603Z,78.96
2022-11-24T12:51:21.793Z,81.86
2022-11-24T12:52:21.945Z,81.69
2022-11-24T12:53:22.099Z,77.83
2022-11-24T12:54:22.247Z,78.47
2022-11-24T12:55:22.411Z,80.24
2022-11-24T12:56:22.579Z,82.98
2022-11-24T12:57:22.783Z,82.02
2022-11-24T12:58:22.993Z,80.24